createdAt,value
2018-05-04T00:01:59.870Z,7.50
2018-05-04T00:04:26.218Z,7.80
2018-05-04T00:06:53.278Z,8.60
2018-05-04T00:09:20.331Z,8.50
2018-05-04T00:11:46.706Z,8.50
2018-05-04T00:14:13.020Z,8.30
2018-05-04T00:16:39.379Z,8.10
2018-05-04T00:19:05.689Z,8.50
2018-05-04T00:21:32.030Z,8.20
2018-05-04T00:23:58.336Z,8.70
2018-05-04T00:26:24.714Z,8.80
2018-05-04T00:28:51.027Z,9.00
2018-05-04T00:31:17.376Z,8.80
2018-05-04T00:33:43.733Z,8.70
2018-05-04T00:36:10.825Z,8.60
2018-05-04T00:38:37.214Z,8.60
2018-05-04T00:41:04.270Z,7.90
2018-05-04T00:43:30.574Z,7.80
2018-05-04T00:45:56.941Z,8.10
2018-05-04T00:48:23.246Z,7.30
2018-05-04T00:50:50.340Z,6.90
2018-05-04T00:53:16.657Z,6.80
2018-05-04T00:55:43.037Z,7.40
2018-05-04T00:58:09.343Z,7.50
2018-05-04T01:00:35.702Z,7.80
2018-05-04T01:03:02.787Z,7.90
2018-05-04T01:05:29.151Z,7.80
2018-05-04T01:07:55.457Z,8.20
2018-05-04T01:10:23.057Z,8.30
2018-05-04T01:12:49.419Z,8.30
2018-05-04T01:15:15.804Z,8.10
2018-05-04T01:17:43.612Z,7.70
2018-05-04T01:20:09.921Z,7.70
2018-05-04T01:22:36.268Z,7.00
2018-05-04T01:25:03.390Z,6.10
2018-05-04T01:27:29.708Z,6.10
2018-05-04T01:29:56.016Z,6.40
2018-05-04T01:32:22.398Z,6.50
2018-05-04T01:34:48.705Z,6.60
2018-05-04T01:37:15.054Z,6.70
2018-05-04T01:39:41.410Z,6.70
2018-05-04T01:42:08.484Z,6.70
2018-05-04T01:44:34.802Z,6.70
2018-05-04T01:47:01.153Z,6.50
2018-05-04T01:49:27.471Z,6.50
2018-05-04T01:51:53.824Z,6.60
2018-05-04T01:54:20.110Z,7.10
2018-05-04T01:56:47.218Z,7.50
2018-05-04T01:59:13.536Z,7.40
2018-05-04T02:01:39.922Z,7.70
2018-05-04T02:04:06.250Z,7.80
2018-05-04T02:06:33.362Z,7.10
2018-05-04T02:09:00.421Z,7.40
2018-05-04T02:11:26.774Z,7.30
2018-05-04T02:13:53.822Z,7.60
2018-05-04T02:16:20.922Z,7.30
2018-05-04T02:18:48.599Z,7.20
2018-05-04T02:21:15.754Z,6.80
2018-05-04T02:23:42.065Z,6.70
2018-05-04T02:26:08.415Z,6.10
2018-05-04T02:28:34.761Z,6.10
2018-05-04T02:31:01.149Z,6.40
2018-05-04T02:33:27.517Z,6.50
2018-05-04T02:35:53.832Z,6.50
2018-05-04T02:38:20.190Z,7.00
2018-05-04T02:40:47.250Z,6.60
2018-05-04T02:43:13.651Z,6.60
2018-05-04T02:45:39.967Z,6.90
2018-05-04T02:48:06.393Z,7.30
2018-05-04T02:50:33.551Z,7.00
2018-05-04T02:52:59.913Z,6.90
2018-05-04T02:55:27.066Z,6.10
2018-05-04T02:57:53.317Z,6.00
2018-05-04T03:00:19.678Z,5.80
2018-05-04T03:02:45.998Z,5.50
2018-05-04T03:05:12.365Z,5.50
2018-05-04T03:07:38.662Z,5.70
2018-05-04T03:10:04.981Z,5.80
2018-05-04T03:12:31.336Z,6.00
2018-05-04T03:14:57.646Z,5.80
2018-05-04T03:17:23.994Z,6.00
2018-05-04T03:19:50.356Z,5.80
2018-05-04T03:22:17.360Z,5.70
2018-05-04T03:24:43.740Z,5.60
2018-05-04T03:27:10.850Z,5.90
2018-05-04T03:29:37.215Z,5.80
2018-05-04T03:32:04.286Z,5.80
2018-05-04T03:34:30.655Z,5.70
2018-05-04T03:36:56.954Z,6.20
2018-05-04T03:39:23.325Z,6.50
2018-05-04T03:41:50.199Z,6.50
2018-05-04T03:44:17.304Z,5.90
2018-05-04T03:46:43.642Z,5.90
2018-05-04T03:49:10.782Z,6.20
2018-05-04T03:51:37.806Z,6.10
2018-05-04T03:54:04.174Z,6.20
2018-05-04T03:56:30.487Z,6.60
2018-05-04T04:02:27.233Z,5.10
2018-05-04T04:04:53.492Z,5.00
2018-05-04T04:07:19.847Z,5.50
2018-05-04T04:09:46.945Z,6.30
2018-05-04T04:12:13.304Z,6.20
2018-05-04T04:14:39.618Z,6.30
2018-05-04T04:17:06.054Z,6.50
2018-05-04T04:19:32.432Z,6.60
2018-05-04T04:21:59.478Z,6.40
2018-05-04T04:24:26.573Z,6.70
2018-05-04T04:26:52.873Z,6.70
2018-05-04T04:29:19.185Z,6.30
2018-05-04T04:31:46.909Z,6.10
2018-05-04T04:34:13.260Z,6.00
2018-05-04T04:36:39.575Z,6.20
2018-05-04T04:39:05.969Z,6.70
2018-05-04T04:41:32.326Z,7.00
2018-05-04T04:43:59.326Z,6.90
2018-05-04T04:46:25.731Z,6.30
2018-05-04T04:48:52.041Z,6.30
2018-05-04T04:51:18.430Z,6.10
2018-05-04T04:53:44.730Z,5.90
2018-05-04T04:56:11.084Z,6.20
2018-05-04T04:58:37.399Z,6.50
2018-05-04T05:01:04.501Z,6.60
2018-05-04T05:03:30.817Z,6.50
2018-05-04T05:05:57.199Z,7.10
2018-05-04T05:08:24.266Z,6.50
2018-05-04T05:10:51.309Z,6.60
2018-05-04T05:13:18.406Z,6.40
2018-05-04T05:15:44.719Z,6.40
2018-05-04T05:18:11.070Z,6.30
2018-05-04T05:20:37.413Z,6.40
2018-05-04T05:23:03.808Z,6.40
2018-05-04T05:25:30.117Z,6.90
2018-05-04T05:27:56.458Z,7.20
2018-05-04T05:30:22.826Z,7.00
2018-05-04T05:32:49.122Z,7.00
2018-05-04T05:35:15.429Z,7.10
2018-05-04T05:37:42.634Z,7.40
2018-05-04T05:40:08.963Z,7.30
2018-05-04T05:42:35.326Z,7.70
2018-05-04T05:45:01.640Z,7.60
2018-05-04T05:47:27.950Z,7.70
2018-05-04T05:49:54.320Z,7.70
2018-05-04T05:52:21.370Z,8.00
2018-05-04T05:54:48.420Z,8.30
2018-05-04T05:57:15.509Z,8.20
2018-05-04T05:59:41.810Z,8.20
2018-05-04T06:02:08.183Z,8.10
2018-05-04T06:04:34.555Z,8.00
2018-05-04T06:07:00.850Z,8.40
2018-05-04T06:09:27.378Z,8.30
2018-05-04T06:11:53.558Z,8.40
2018-05-04T06:14:20.614Z,8.20
2018-05-04T06:16:46.946Z,8.20
2018-05-04T06:19:13.338Z,8.50
2018-05-04T06:21:39.665Z,8.50
2018-05-04T06:24:06.007Z,8.60
2018-05-04T06:26:32.364Z,8.70
2018-05-04T06:28:58.692Z,8.70
2018-05-04T06:31:25.094Z,8.80
2018-05-04T06:33:51.454Z,8.90
2018-05-04T06:36:17.860Z,8.90
2018-05-04T06:38:44.285Z,9.10
2018-05-04T06:41:10.643Z,9.10
2018-05-04T06:43:37.730Z,9.30
2018-05-04T06:46:04.036Z,9.20
2018-05-04T06:48:30.390Z,9.30
2018-05-04T06:50:56.738Z,9.30
2018-05-04T06:53:23.154Z,9.40
2018-05-04T06:55:49.434Z,9.40
2018-05-04T06:58:16.557Z,9.60
2018-05-04T07:00:42.868Z,9.50
2018-05-04T07:03:09.404Z,9.80
2018-05-04T07:05:35.710Z,9.70
2018-05-04T07:08:02.009Z,9.70
2018-05-04T07:10:29.152Z,9.90
2018-05-04T07:12:55.427Z,9.80
2018-05-04T07:15:21.805Z,10.00
2018-05-04T07:17:48.130Z,10.20
2018-05-04T07:20:14.447Z,10.20
2018-05-04T07:22:40.797Z,10.20
2018-05-04T07:25:07.114Z,10.30
2018-05-04T07:27:33.709Z,10.30
2018-05-04T07:30:00.005Z,10.30
2018-05-04T07:32:27.102Z,10.50
2018-05-04T07:34:53.421Z,10.50
2018-05-04T07:37:20.656Z,10.60
2018-05-04T07:39:47.010Z,10.50
2018-05-04T07:42:13.357Z,10.50
2018-05-04T07:44:39.729Z,10.60
2018-05-04T07:47:06.795Z,10.70
2018-05-04T07:49:33.118Z,10.70
2018-05-04T07:52:00.231Z,10.80
2018-05-04T07:54:26.598Z,10.80
2018-05-04T07:56:53.690Z,10.90
2018-05-04T07:59:20.035Z,10.90
2018-05-04T08:01:46.381Z,11.10
2018-05-04T08:04:12.689Z,11.30
2018-05-04T08:06:39.061Z,11.20
2018-05-04T08:09:06.113Z,11.40
2018-05-04T08:11:32.433Z,11.30
2018-05-04T08:14:00.827Z,11.40
2018-05-04T08:16:27.149Z,11.30
2018-05-04T08:18:54.192Z,11.40
2018-05-04T08:21:20.538Z,11.40
2018-05-04T08:23:46.837Z,11.50
2018-05-04T08:26:13.220Z,11.70
2018-05-04T08:28:39.550Z,11.80
2018-05-04T08:31:07.474Z,11.50
2018-05-04T08:33:34.570Z,11.80
2018-05-04T08:36:00.957Z,11.70
2018-05-04T08:38:28.074Z,12.10
2018-05-04T08:40:54.438Z,12.00
2018-05-04T08:43:20.770Z,12.20
2018-05-04T08:45:47.823Z,12.00
2018-05-04T08:48:14.211Z,11.90
2018-05-04T08:50:40.522Z,12.10
2018-05-04T08:53:06.893Z,12.30
2018-05-04T08:55:33.201Z,12.30
2018-05-04T08:57:59.525Z,12.40
2018-05-04T09:00:25.925Z,12.50
2018-05-04T09:02:52.269Z,12.70
2018-05-04T09:05:18.711Z,12.70
2018-05-04T09:07:44.962Z,12.60
2018-05-04T09:10:11.275Z,12.90
2018-05-04T09:12:37.649Z,12.80
2018-05-04T09:15:04.713Z,13.20
2018-05-04T09:17:31.069Z,13.10
2018-05-04T09:19:57.409Z,13.20
2018-05-04T09:22:23.765Z,13.10
2018-05-04T09:24:50.127Z,13.30
2018-05-04T09:27:16.438Z,13.50
2018-05-04T09:29:43.537Z,13.80
2018-05-04T09:32:09.838Z,13.70
2018-05-04T09:34:36.879Z,13.90
2018-05-04T09:37:03.979Z,13.80
2018-05-04T09:39:31.790Z,13.60
2018-05-04T09:41:58.883Z,13.60
2018-05-04T09:44:25.184Z,13.60
2018-05-04T09:46:51.596Z,13.50
2018-05-04T09:49:18.653Z,13.50
2018-05-04T09:51:44.976Z,13.50
2018-05-04T09:54:12.073Z,14.00
2018-05-04T09:56:38.389Z,13.90
2018-05-04T09:59:04.738Z,13.90
2018-05-04T10:01:31.116Z,13.70
2018-05-04T10:03:58.174Z,13.70
2018-05-04T10:06:24.483Z,13.60
2018-05-04T10:08:50.832Z,13.50
2018-05-04T10:11:18.056Z,13.60
2018-05-04T10:13:45.077Z,13.60
2018-05-04T10:16:11.419Z,13.60
2018-05-04T10:18:37.766Z,13.40
2018-05-04T10:21:04.071Z,13.50
2018-05-04T10:23:30.436Z,13.40
2018-05-04T10:25:57.478Z,13.50
2018-05-04T10:28:24.582Z,13.60
2018-05-04T10:30:50.883Z,13.60
2018-05-04T10:33:17.260Z,13.40
2018-05-04T10:35:43.566Z,13.50
2018-05-04T10:38:10.595Z,13.40
2018-05-04T10:40:36.970Z,13.50
2018-05-04T10:43:03.309Z,13.80
2018-05-04T10:45:29.688Z,13.50
2018-05-04T10:47:55.984Z,13.60
2018-05-04T10:50:23.105Z,13.60
2018-05-04T10:52:49.414Z,13.50
2018-05-04T10:55:15.778Z,13.50
2018-05-04T10:57:42.105Z,13.60
2018-05-04T11:00:09.445Z,13.40
2018-05-04T11:02:35.829Z,13.30
2018-05-04T11:05:02.149Z,13.50
2018-05-04T11:07:29.251Z,13.60
2018-05-04T11:09:55.547Z,13.60
2018-05-04T11:12:21.850Z,13.70
2018-05-04T11:14:48.957Z,14.00
2018-05-04T11:17:15.302Z,13.90
2018-05-04T11:19:42.328Z,14.10
2018-05-04T11:22:08.712Z,13.70
2018-05-04T11:24:35.751Z,13.70
2018-05-04T11:27:02.869Z,13.80
2018-05-04T11:29:29.226Z,13.80
2018-05-04T11:31:56.299Z,13.80
2018-05-04T11:34:22.666Z,13.70
2018-05-04T11:36:49.024Z,13.90
2018-05-04T11:39:16.100Z,14.10
2018-05-04T11:41:43.205Z,14.30
2018-05-04T11:44:09.511Z,14.30
2018-05-04T11:46:35.860Z,14.30
2018-05-04T11:49:03.647Z,14.50
2018-05-04T11:51:29.969Z,14.40
2018-05-04T11:53:56.330Z,14.30
2018-05-04T11:56:23.389Z,14.10
2018-05-04T11:58:50.493Z,14.40
2018-05-04T12:01:16.801Z,14.30
2018-05-04T12:03:43.134Z,14.70
2018-05-04T12:06:10.285Z,15.00
2018-05-04T12:08:36.594Z,15.00
2018-05-04T12:11:02.941Z,15.20
2018-05-04T12:13:29.258Z,15.10
2018-05-04T12:15:55.621Z,15.00
2018-05-04T12:18:21.942Z,14.80
2018-05-04T12:20:48.285Z,15.00
2018-05-04T12:23:14.576Z,15.20
2018-05-04T12:25:40.959Z,15.30
2018-05-04T12:28:08.021Z,15.30
2018-05-04T12:30:35.135Z,15.30
2018-05-04T12:33:01.506Z,15.20
2018-05-04T12:35:28.608Z,15.00
2018-05-04T12:37:57.957Z,14.90
2018-05-04T12:40:25.082Z,15.00
2018-05-04T12:42:51.382Z,15.00
2018-05-04T12:45:17.685Z,15.20
2018-05-04T12:47:44.071Z,15.30
2018-05-04T12:50:11.916Z,15.40
2018-05-04T12:52:39.769Z,15.30
2018-05-04T12:55:06.062Z,15.40
2018-05-04T12:57:32.425Z,15.50
2018-05-04T12:59:58.750Z,15.60
2018-05-04T13:02:25.049Z,15.90
2018-05-04T13:04:52.146Z,15.80
2018-05-04T13:07:19.226Z,15.70
2018-05-04T13:09:45.628Z,15.70
2018-05-04T13:12:11.981Z,15.60
2018-05-04T13:14:38.279Z,15.80
2018-05-04T13:17:04.645Z,16.10
2018-05-04T13:19:31.698Z,16.40
2018-05-04T13:21:58.790Z,16.90
2018-05-04T13:24:25.089Z,16.90
2018-05-04T13:26:52.130Z,16.70
2018-05-04T13:29:19.284Z,16.70
2018-05-04T13:31:47.004Z,17.20
2018-05-04T13:34:13.346Z,17.20
2018-05-04T13:36:39.689Z,17.10
2018-05-04T13:39:07.525Z,17.60
2018-05-04T13:41:33.837Z,17.60
2018-05-04T13:44:00.128Z,17.90
2018-05-04T13:46:27.230Z,18.90
2018-05-04T13:48:53.538Z,18.80
2018-05-04T13:51:19.947Z,19.10
2018-05-04T13:53:46.223Z,18.80
2018-05-04T13:56:12.570Z,18.40
2018-05-04T13:58:38.877Z,18.70
2018-05-04T14:01:05.294Z,18.50
2018-05-04T14:03:31.711Z,18.50
2018-05-04T14:05:58.083Z,18.60
2018-05-04T14:08:24.372Z,19.00
2018-05-04T14:10:50.741Z,19.50
2018-05-04T14:13:17.093Z,19.60
2018-05-04T14:15:44.118Z,19.70
2018-05-04T14:18:10.414Z,19.80
2018-05-04T14:20:36.769Z,19.60
2018-05-04T14:23:03.138Z,19.80
2018-05-04T14:25:29.497Z,19.90
2018-05-04T14:27:55.857Z,20.90
2018-05-04T14:30:22.234Z,21.00
2018-05-04T14:32:49.289Z,20.30
2018-05-04T14:35:16.346Z,20.80
2018-05-04T14:37:43.439Z,20.80
2018-05-04T14:40:09.781Z,20.70
2018-05-04T14:42:36.131Z,20.80
2018-05-04T14:45:02.481Z,20.30
2018-05-04T14:47:29.576Z,20.30
2018-05-04T14:49:55.875Z,20.30
2018-05-04T14:52:22.234Z,21.10
2018-05-04T14:54:48.567Z,21.70
2018-05-04T14:57:14.921Z,22.60
2018-05-04T14:59:41.232Z,22.90
2018-05-04T15:02:07.585Z,22.40
2018-05-04T15:04:34.954Z,23.10
2018-05-04T15:07:02.083Z,22.90
2018-05-04T15:09:30.438Z,22.80
2018-05-04T15:11:56.829Z,22.80
2018-05-04T15:14:23.207Z,22.80
2018-05-04T15:16:49.569Z,22.50
2018-05-04T15:19:15.922Z,23.20
2018-05-04T15:21:42.964Z,23.50
2018-05-04T15:24:10.024Z,23.40
2018-05-04T15:26:36.513Z,23.40
2018-05-04T15:29:02.871Z,23.40
2018-05-04T15:31:30.057Z,25.90
2018-05-04T15:33:57.073Z,25.10
2018-05-04T15:36:24.118Z,25.30
2018-05-04T15:38:51.229Z,24.60
2018-05-04T15:41:17.554Z,24.60
2018-05-04T15:43:43.921Z,24.10
2018-05-04T15:46:10.963Z,22.80
2018-05-04T15:48:44.097Z,21.70
2018-05-04T15:51:16.477Z,21.60
2018-05-04T15:53:42.848Z,22.60
2018-05-04T15:56:09.973Z,22.60
2018-05-04T15:58:36.267Z,22.60
2018-05-04T16:01:02.618Z,22.30
2018-05-04T16:03:28.918Z,23.30
2018-05-04T16:05:55.278Z,24.80
2018-05-04T16:08:21.583Z,25.60
2018-05-04T16:10:47.950Z,26.10
2018-05-04T16:13:14.313Z,26.80
2018-05-04T16:15:40.646Z,25.30
2018-05-04T16:18:07.713Z,22.70
2018-05-04T16:20:34.103Z,22.60
2018-05-04T16:23:00.406Z,23.30
2018-05-04T16:25:26.726Z,22.40
2018-05-04T16:27:53.150Z,21.20
2018-05-04T16:30:19.464Z,20.60
2018-05-04T16:32:45.858Z,20.60
2018-05-04T16:35:12.158Z,20.90
2018-05-04T16:37:38.517Z,20.90
2018-05-04T16:40:04.869Z,21.80
2018-05-04T16:42:31.978Z,22.70
2018-05-04T16:44:58.349Z,22.60
2018-05-04T16:47:24.622Z,23.40
2018-05-04T16:49:50.973Z,23.40
2018-05-04T16:52:17.334Z,23.30
2018-05-04T16:54:44.373Z,21.20
2018-05-04T16:57:10.744Z,21.20
2018-05-04T16:59:37.066Z,21.40
2018-05-04T17:02:03.947Z,21.10
2018-05-04T17:04:30.339Z,21.70
2018-05-04T17:06:56.700Z,22.10
2018-05-04T17:09:23.036Z,22.40
2018-05-04T17:11:49.405Z,23.20
2018-05-04T17:14:16.498Z,22.20
2018-05-04T17:16:42.865Z,22.20
2018-05-04T17:19:09.195Z,21.40
2018-05-04T17:21:35.551Z,20.50
2018-05-04T17:24:03.245Z,21.20
2018-05-04T17:26:29.618Z,21.20
2018-05-04T17:28:55.969Z,20.50
2018-05-04T17:31:22.296Z,20.00
2018-05-04T17:33:48.661Z,19.20
2018-05-04T17:36:15.365Z,18.60
2018-05-04T17:38:41.718Z,18.50
2018-05-04T17:41:08.771Z,19.40
2018-05-04T17:43:35.163Z,19.30
2018-05-04T17:46:01.471Z,20.30
2018-05-04T17:48:27.862Z,20.60
2018-05-04T17:50:54.192Z,20.70
2018-05-04T17:53:21.244Z,21.40
2018-05-04T17:55:47.587Z,21.30
2018-05-04T17:58:13.943Z,20.70
2018-05-04T18:00:40.280Z,20.40
2018-05-04T18:03:06.661Z,20.30
2018-05-04T18:05:33.690Z,19.80
2018-05-04T18:08:00.786Z,20.60
2018-05-04T18:10:27.118Z,20.60
2018-05-04T18:12:53.487Z,21.00
2018-05-04T18:15:19.804Z,20.60
2018-05-04T18:17:47.055Z,19.60
2018-05-04T18:20:13.424Z,19.10
2018-05-04T18:22:40.486Z,19.20
2018-05-04T18:25:06.856Z,19.10
2018-05-04T18:27:33.187Z,19.20
2018-05-04T18:29:59.548Z,18.70
2018-05-04T18:32:26.585Z,17.70
2018-05-04T18:34:52.968Z,17.60
2018-05-04T18:37:19.356Z,17.30
2018-05-04T18:39:48.578Z,16.80
2018-05-04T18:42:14.877Z,16.80
2018-05-04T18:44:42.021Z,16.50
2018-05-04T18:47:08.355Z,16.40
2018-05-04T18:49:34.698Z,16.90
2018-05-04T18:52:01.075Z,16.90
2018-05-04T18:54:27.464Z,17.00
2018-05-04T18:56:53.787Z,16.40
2018-05-04T18:59:20.859Z,15.80
2018-05-04T19:01:48.256Z,15.70
2018-05-04T19:04:14.688Z,15.50
2018-05-04T19:06:41.072Z,15.70
2018-05-04T19:09:07.433Z,15.80
2018-05-04T19:11:33.760Z,16.10
2018-05-04T19:14:00.135Z,15.70
2018-05-04T19:16:27.250Z,15.70
2018-05-04T19:18:53.567Z,15.70
2018-05-04T19:21:19.939Z,15.60
2018-05-04T19:23:46.302Z,15.50
2018-05-04T19:26:13.398Z,14.80
2018-05-04T19:28:39.702Z,14.70
2018-05-04T19:31:06.807Z,14.20
2018-05-04T19:33:33.118Z,14.10
2018-05-04T19:35:59.474Z,14.60
2018-05-04T19:38:25.817Z,14.70
2018-05-04T19:40:52.913Z,14.90
2018-05-04T19:43:19.294Z,14.90
2018-05-04T19:45:46.343Z,14.20
2018-05-04T19:48:13.445Z,14.10
2018-05-04T19:50:39.761Z,14.00
2018-05-04T19:53:06.113Z,13.60
2018-05-04T19:55:32.433Z,13.90
2018-05-04T19:57:58.785Z,14.20
2018-05-04T20:00:25.853Z,13.80
2018-05-04T20:02:53.657Z,14.00
2018-05-04T20:05:19.982Z,14.00
2018-05-04T20:07:46.337Z,13.90
2018-05-04T20:10:12.678Z,13.90
2018-05-04T20:12:39.031Z,13.50
2018-05-04T20:15:05.393Z,13.70
2018-05-04T20:17:31.753Z,13.60
2018-05-04T20:19:58.084Z,13.70
2018-05-04T20:22:24.447Z,13.50
2018-05-04T20:24:50.740Z,13.30
2018-05-04T20:27:17.101Z,13.20
2018-05-04T20:29:43.465Z,13.20
2018-05-04T20:32:09.779Z,13.10
2018-05-04T20:34:36.850Z,12.80
2018-05-04T20:37:03.156Z,12.70
2018-05-04T20:39:30.283Z,13.00
2018-05-04T20:41:58.129Z,12.30
2018-05-04T20:44:24.442Z,12.30
2018-05-04T20:46:50.794Z,12.40
2018-05-04T20:49:17.094Z,12.50
2018-05-04T20:51:43.442Z,12.70
2018-05-04T20:54:09.759Z,12.80
2018-05-04T20:56:36.149Z,12.70
2018-05-04T20:59:03.221Z,12.40
2018-05-04T21:01:29.554Z,12.40
2018-05-04T21:03:55.932Z,12.80
2018-05-04T21:06:22.329Z,12.90
2018-05-04T21:08:49.175Z,12.80
2018-05-04T21:11:15.522Z,12.70
2018-05-04T21:13:41.839Z,12.60
2018-05-04T21:16:08.204Z,12.70
2018-05-04T21:18:34.542Z,12.70
2018-05-04T21:21:00.917Z,12.00
2018-05-04T21:23:27.243Z,11.60
2018-05-04T21:25:53.605Z,11.80
2018-05-04T21:28:19.913Z,12.30
2018-05-04T21:30:46.242Z,12.10
2018-05-04T21:33:12.554Z,11.60
2018-05-04T21:35:38.889Z,11.60
2018-05-04T21:38:06.243Z,11.90
2018-05-04T21:40:32.588Z,11.80
2018-05-04T21:42:58.888Z,12.00
2018-05-04T21:45:26.017Z,12.10
2018-05-04T21:47:53.089Z,11.80
2018-05-04T21:50:20.153Z,11.80
2018-05-04T21:52:46.451Z,11.70
2018-05-04T21:55:13.593Z,11.70
2018-05-04T21:57:40.647Z,11.70
2018-05-04T22:00:07.928Z,11.70
2018-05-04T22:02:34.192Z,11.60
2018-05-04T22:05:00.523Z,11.50
2018-05-04T22:07:26.890Z,11.40
2018-05-04T22:09:53.239Z,11.40
2018-05-04T22:12:20.284Z,11.20
2018-05-04T22:14:47.349Z,11.20
2018-05-04T22:17:13.703Z,11.10
2018-05-04T22:19:40.002Z,11.10
2018-05-04T22:22:06.343Z,11.20
2018-05-04T22:24:32.648Z,11.00
2018-05-04T22:26:59.721Z,11.10
2018-05-04T22:29:26.014Z,11.00
2018-05-04T22:31:53.098Z,10.50
2018-05-04T22:34:19.412Z,10.50
2018-05-04T22:36:45.737Z,10.50
2018-05-04T22:39:12.781Z,10.60
2018-05-04T22:41:39.851Z,10.50
2018-05-04T22:44:06.153Z,10.40
2018-05-04T22:46:34.195Z,10.20
2018-05-04T22:49:00.508Z,10.10
2018-05-04T22:51:26.847Z,10.40
2018-05-04T22:53:53.150Z,10.80
2018-05-04T22:56:19.517Z,10.40
2018-05-04T22:58:45.827Z,10.60
2018-05-04T23:01:12.159Z,10.60
2018-05-04T23:03:38.465Z,10.40
2018-05-04T23:06:04.839Z,10.60
2018-05-04T23:08:31.166Z,10.90
2018-05-04T23:10:57.510Z,10.60
2018-05-04T23:13:24.569Z,10.20
2018-05-04T23:15:51.614Z,10.40
2018-05-04T23:18:18.705Z,10.40
2018-05-04T23:20:45.032Z,10.30
2018-05-04T23:23:11.369Z,10.00
2018-05-04T23:25:37.735Z,10.20
2018-05-04T23:28:04.948Z,10.40
2018-05-04T23:30:31.275Z,10.30
2018-05-04T23:32:57.649Z,10.50
2018-05-04T23:35:23.950Z,10.20
2018-05-04T23:37:50.279Z,9.10
2018-05-04T23:40:17.299Z,9.10
2018-05-04T23:42:43.646Z,9.40
2018-05-04T23:45:10.698Z,8.90
2018-05-04T23:47:37.052Z,8.80
2018-05-04T23:50:03.926Z,8.90
2018-05-04T23:52:31.004Z,8.50
2018-05-04T23:54:57.343Z,8.40
2018-05-04T23:57:23.678Z,9.20
2018-05-04T23:59:49.995Z,9.40
